sensor_id;sensor_type;location;lat;lon;timestamp;P1;durP1;ratioP1;P2;durP2;ratioP2
66946;SDS011;53853;51.982;5.928;2023-04-30T00:02:15;7.43;;;4.70;;
66946;SDS011;53853;51.982;5.928;2023-04-30T00:04:45;4.63;;;3.85;;
66946;SDS011;53853;51.982;5.928;2023-04-30T00:07:14;5.70;;;3.70;;
66946;SDS011;53853;51.982;5.928;2023-04-30T00:09:44;5.63;;;4.03;;
66946;SDS011;53853;51.982;5.928;2023-04-30T00:12:15;6.65;;;4.72;;
66946;SDS011;53853;51.982;5.928;2023-04-30T00:14:48;6.10;;;4.22;;
66946;SDS011;53853;51.982;5.928;2023-04-30T00:17:20;6.32;;;4.30;;
66946;SDS011;53853;51.982;5.928;2023-04-30T00:19:51;8.40;;;5.25;;
66946;SDS011;53853;51.982;5.928;2023-04-30T00:22:21;7.28;;;4.63;;
66946;SDS011;53853;51.982;5.928;2023-04-30T00:24:50;6.05;;;4.03;;
66946;SDS011;53853;51.982;5.928;2023-04-30T00:27:20;9.05;;;4.93;;
66946;SDS011;53853;51.982;5.928;2023-04-30T00:29:53;6.18;;;4.72;;
66946;SDS011;53853;51.982;5.928;2023-04-30T00:32:22;6.25;;;4.63;;
66946;SDS011;53853;51.982;5.928;2023-04-30T00:34:52;7.85;;;5.07;;
66946;SDS011;53853;51.982;5.928;2023-04-30T00:37:22;5.88;;;4.53;;
66946;SDS011;53853;51.982;5.928;2023-04-30T00:39:52;6.43;;;3.92;;
66946;SDS011;53853;51.982;5.928;2023-04-30T00:42:22;6.45;;;5.13;;
66946;SDS011;53853;51.982;5.928;2023-04-30T00:44:54;7.47;;;4.68;;
66946;SDS011;53853;51.982;5.928;2023-04-30T00:47:24;5.97;;;3.72;;
66946;SDS011;53853;51.982;5.928;2023-04-30T00:49:54;9.48;;;5.00;;
66946;SDS011;53853;51.982;5.928;2023-04-30T00:52:24;5.18;;;4.10;;
66946;SDS011;53853;51.982;5.928;2023-04-30T00:54:54;6.78;;;3.97;;
66946;SDS011;53853;51.982;5.928;2023-04-30T00:57:24;5.57;;;4.30;;
66946;SDS011;53853;51.982;5.928;2023-04-30T00:59:58;5.03;;;4.20;;
66946;SDS011;53853;51.982;5.928;2023-04-30T01:02:29;6.00;;;3.63;;
66946;SDS011;53853;51.982;5.928;2023-04-30T01:04:59;5.85;;;4.20;;
66946;SDS011;53853;51.982;5.928;2023-04-30T01:07:29;5.90;;;4.53;;
66946;SDS011;53853;51.982;5.928;2023-04-30T01:10:00;7.40;;;4.47;;
66946;SDS011;53853;51.982;5.928;2023-04-30T01:12:32;8.90;;;4.60;;
66946;SDS011;53853;51.982;5.928;2023-04-30T01:15:16;6.68;;;5.07;;
66946;SDS011;53853;51.982;5.928;2023-04-30T01:17:52;6.57;;;3.85;;
66946;SDS011;53853;51.982;5.928;2023-04-30T01:20:27;6.20;;;4.25;;
66946;SDS011;53853;51.982;5.928;2023-04-30T01:23:00;6.20;;;4.38;;
66946;SDS011;53853;51.982;5.928;2023-04-30T01:25:43;5.80;;;4.45;;
66946;SDS011;53853;51.982;5.928;2023-04-30T01:28:33;5.47;;;4.20;;
66946;SDS011;53853;51.982;5.928;2023-04-30T01:31:10;6.63;;;4.78;;
66946;SDS011;53853;51.982;5.928;2023-04-30T01:33:45;5.05;;;4.38;;
66946;SDS011;53853;51.982;5.928;2023-04-30T01:36:20;7.65;;;4.50;;
66946;SDS011;53853;51.982;5.928;2023-04-30T01:39:05;5.57;;;4.18;;
66946;SDS011;53853;51.982;5.928;2023-04-30T01:41:48;6.32;;;4.25;;
66946;SDS011;53853;51.982;5.928;2023-04-30T01:44:31;6.85;;;4.18;;
66946;SDS011;53853;51.982;5.928;2023-04-30T01:47:22;7.53;;;4.43;;
66946;SDS011;53853;51.982;5.928;2023-04-30T01:50:02;5.65;;;4.57;;
66946;SDS011;53853;51.982;5.928;2023-04-30T01:52:44;7.35;;;3.92;;
66946;SDS011;53853;51.982;5.928;2023-04-30T01:55:17;8.40;;;4.93;;
66946;SDS011;53853;51.982;5.928;2023-04-30T01:57:54;5.60;;;4.43;;
66946;SDS011;53853;51.982;5.928;2023-04-30T02:00:29;9.30;;;4.30;;
66946;SDS011;53853;51.982;5.928;2023-04-30T02:02:59;7.13;;;4.80;;
66946;SDS011;53853;51.982;5.928;2023-04-30T02:05:29;6.40;;;4.50;;
66946;SDS011;53853;51.982;5.928;2023-04-30T02:07:59;5.35;;;4.38;;
66946;SDS011;53853;51.982;5.928;2023-04-30T02:10:29;5.40;;;4.63;;
66946;SDS011;53853;51.982;5.928;2023-04-30T02:12:59;6.20;;;4.60;;
66946;SDS011;53853;51.982;5.928;2023-04-30T02:15:32;5.38;;;4.55;;
66946;SDS011;53853;51.982;5.928;2023-04-30T02:18:01;8.00;;;5.03;;
66946;SDS011;53853;51.982;5.928;2023-04-30T02:20:31;6.72;;;4.03;;
66946;SDS011;53853;51.982;5.928;2023-04-30T02:23:01;5.65;;;4.82;;
66946;SDS011;53853;51.982;5.928;2023-04-30T02:25:31;6.32;;;5.00;;
66946;SDS011;53853;51.982;5.928;2023-04-30T02:28:03;7.80;;;4.22;;
66946;SDS011;53853;51.982;5.928;2023-04-30T02:30:35;6.65;;;4.85;;
66946;SDS011;53853;51.982;5.928;2023-04-30T02:33:05;6.38;;;4.22;;
66946;SDS011;53853;51.982;5.928;2023-04-30T02:35:38;4.88;;;3.67;;
66946;SDS011;53853;51.982;5.928;2023-04-30T02:38:08;7.38;;;4.00;;
66946;SDS011;53853;51.982;5.928;2023-04-30T02:40:39;5.07;;;3.90;;
66946;SDS011;53853;51.982;5.928;2023-04-30T02:43:09;6.60;;;4.35;;
66946;SDS011;53853;51.982;5.928;2023-04-30T02:45:42;6.00;;;3.38;;
66946;SDS011;53853;51.982;5.928;2023-04-30T02:48:11;7.80;;;4.95;;
66946;SDS011;53853;51.982;5.928;2023-04-30T02:50:41;7.22;;;3.88;;
66946;SDS011;53853;51.982;5.928;2023-04-30T02:53:11;5.13;;;3.78;;
66946;SDS011;53853;51.982;5.928;2023-04-30T02:55:41;5.32;;;3.95;;
66946;SDS011;53853;51.982;5.928;2023-04-30T02:58:11;6.60;;;4.22;;
66946;SDS011;53853;51.982;5.928;2023-04-30T03:00:43;7.80;;;4.07;;
66946;SDS011;53853;51.982;5.928;2023-04-30T03:03:13;6.45;;;4.90;;
66946;SDS011;53853;51.982;5.928;2023-04-30T03:05:43;7.75;;;4.72;;
66946;SDS011;53853;51.982;5.928;2023-04-30T03:08:13;7.80;;;4.97;;
66946;SDS011;53853;51.982;5.928;2023-04-30T03:10:43;6.30;;;4.45;;
66946;SDS011;53853;51.982;5.928;2023-04-30T03:13:13;6.40;;;4.43;;
66946;SDS011;53853;51.982;5.928;2023-04-30T03:15:45;6.65;;;4.78;;
66946;SDS011;53853;51.982;5.928;2023-04-30T03:18:15;8.43;;;5.35;;
66946;SDS011;53853;51.982;5.928;2023-04-30T03:20:45;5.90;;;4.25;;
66946;SDS011;53853;51.982;5.928;2023-04-30T03:23:15;6.03;;;5.20;;
66946;SDS011;53853;51.982;5.928;2023-04-30T03:25:45;7.78;;;4.57;;
66946;SDS011;53853;51.982;5.928;2023-04-30T03:28:16;6.63;;;5.15;;
66946;SDS011;53853;51.982;5.928;2023-04-30T03:30:49;5.35;;;4.53;;
66946;SDS011;53853;51.982;5.928;2023-04-30T03:33:20;7.00;;;4.80;;
66946;SDS011;53853;51.982;5.928;2023-04-30T03:35:50;10.05;;;4.60;;
66946;SDS011;53853;51.982;5.928;2023-04-30T03:38:20;7.28;;;5.05;;
66946;SDS011;53853;51.982;5.928;2023-04-30T03:40:49;7.20;;;4.90;;
66946;SDS011;53853;51.982;5.928;2023-04-30T03:43:20;8.40;;;5.00;;
66946;SDS011;53853;51.982;5.928;2023-04-30T03:45:52;6.28;;;4.60;;
66946;SDS011;53853;51.982;5.928;2023-04-30T03:48:24;6.72;;;5.18;;
66946;SDS011;53853;51.982;5.928;2023-04-30T03:50:53;7.65;;;5.07;;
66946;SDS011;53853;51.982;5.928;2023-04-30T03:53:23;9.02;;;5.60;;
66946;SDS011;53853;51.982;5.928;2023-04-30T03:55:53;8.23;;;5.53;;
66946;SDS011;53853;51.982;5.928;2023-04-30T03:58:24;7.88;;;5.63;;
66946;SDS011;53853;51.982;5.928;2023-04-30T04:00:57;9.27;;;5.22;;
66946;SDS011;53853;51.982;5.928;2023-04-30T04:03:27;6.25;;;4.47;;
66946;SDS011;53853;51.982;5.928;2023-04-30T04:05:57;10.23;;;5.50;;
66946;SDS011;53853;51.982;5.928;2023-04-30T04:08:27;6.03;;;4.68;;
66946;SDS011;53853;51.982;5.928;2023-04-30T04:10:57;6.78;;;5.53;;
66946;SDS011;53853;51.982;5.928;2023-04-30T04:13:27;5.88;;;4.93;;
66946;SDS011;53853;51.982;5.928;2023-04-30T04:16:00;8.93;;;5.20;;
66946;SDS011;53853;51.982;5.928;2023-04-30T04:18:30;8.85;;;5.53;;
66946;SDS011;53853;51.982;5.928;2023-04-30T04:21:00;8.32;;;6.03;;
66946;SDS011;53853;51.982;5.928;2023-04-30T04:23:30;7.95;;;5.55;;
66946;SDS011;53853;51.982;5.928;2023-04-30T04:26:00;8.82;;;4.97;;
66946;SDS011;53853;51.982;5.928;2023-04-30T04:28:30;7.38;;;5.32;;
66946;SDS011;53853;51.982;5.928;2023-04-30T04:31:04;7.97;;;5.13;;
66946;SDS011;53853;51.982;5.928;2023-04-30T04:33:34;7.35;;;6.03;;
66946;SDS011;53853;51.982;5.928;2023-04-30T04:36:04;6.85;;;5.40;;
66946;SDS011;53853;51.982;5.928;2023-04-30T04:38:34;7.50;;;5.82;;
66946;SDS011;53853;51.982;5.928;2023-04-30T04:41:04;9.15;;;5.75;;
66946;SDS011;53853;51.982;5.928;2023-04-30T04:43:34;6.95;;;5.20;;
66946;SDS011;53853;51.982;5.928;2023-04-30T04:46:06;8.05;;;5.75;;
66946;SDS011;53853;51.982;5.928;2023-04-30T04:48:36;8.23;;;5.43;;
66946;SDS011;53853;51.982;5.928;2023-04-30T04:51:07;8.85;;;6.35;;
66946;SDS011;53853;51.982;5.928;2023-04-30T04:53:37;9.88;;;6.05;;
66946;SDS011;53853;51.982;5.928;2023-04-30T04:56:07;12.07;;;6.05;;
66946;SDS011;53853;51.982;5.928;2023-04-30T04:58:37;8.98;;;6.40;;
66946;SDS011;53853;51.982;5.928;2023-04-30T05:01:10;8.73;;;6.35;;
66946;SDS011;53853;51.982;5.928;2023-04-30T05:03:40;8.85;;;6.70;;
66946;SDS011;53853;51.982;5.928;2023-04-30T05:06:10;7.03;;;6.05;;
66946;SDS011;53853;51.982;5.928;2023-04-30T05:08:41;9.63;;;6.55;;
66946;SDS011;53853;51.982;5.928;2023-04-30T05:11:11;8.63;;;6.72;;
66946;SDS011;53853;51.982;5.928;2023-04-30T05:13:41;8.70;;;7.22;;
66946;SDS011;53853;51.982;5.928;2023-04-30T05:16:14;8.73;;;7.22;;
66946;SDS011;53853;51.982;5.928;2023-04-30T05:18:44;7.90;;;6.22;;
66946;SDS011;53853;51.982;5.928;2023-04-30T05:21:14;9.82;;;7.22;;
66946;SDS011;53853;51.982;5.928;2023-04-30T05:23:45;9.15;;;6.78;;
66946;SDS011;53853;51.982;5.928;2023-04-30T05:26:15;8.50;;;6.00;;
66946;SDS011;53853;51.982;5.928;2023-04-30T05:28:45;7.93;;;6.82;;
66946;SDS011;53853;51.982;5.928;2023-04-30T05:31:17;8.80;;;6.28;;
66946;SDS011;53853;51.982;5.928;2023-04-30T05:33:47;7.70;;;6.40;;
66946;SDS011;53853;51.982;5.928;2023-04-30T05:36:17;8.50;;;6.88;;
66946;SDS011;53853;51.982;5.928;2023-04-30T05:38:47;10.48;;;6.93;;
66946;SDS011;53853;51.982;5.928;2023-04-30T05:41:17;8.23;;;6.38;;
66946;SDS011;53853;51.982;5.928;2023-04-30T05:43:47;9.27;;;6.47;;
66946;SDS011;53853;51.982;5.928;2023-04-30T05:46:19;7.35;;;5.32;;
66946;SDS011;53853;51.982;5.928;2023-04-30T05:48:49;7.80;;;5.57;;
66946;SDS011;53853;51.982;5.928;2023-04-30T05:51:19;8.93;;;5.63;;
66946;SDS011;53853;51.982;5.928;2023-04-30T05:53:51;7.93;;;6.07;;
66946;SDS011;53853;51.982;5.928;2023-04-30T05:56:22;9.98;;;5.70;;
66946;SDS011;53853;51.982;5.928;2023-04-30T05:58:52;9.75;;;6.20;;
66946;SDS011;53853;51.982;5.928;2023-04-30T06:01:24;8.40;;;6.47;;
66946;SDS011;53853;51.982;5.928;2023-04-30T06:03:55;8.02;;;5.38;;
66946;SDS011;53853;51.982;5.928;2023-04-30T06:06:26;7.53;;;6.28;;
66946;SDS011;53853;51.982;5.928;2023-04-30T06:08:56;7.50;;;6.07;;
66946;SDS011;53853;51.982;5.928;2023-04-30T06:11:26;9.40;;;6.70;;
66946;SDS011;53853;51.982;5.928;2023-04-30T06:13:57;8.15;;;7.20;;
66946;SDS011;53853;51.982;5.928;2023-04-30T06:16:29;9.35;;;6.22;;
66946;SDS011;53853;51.982;5.928;2023-04-30T06:18:59;10.23;;;5.90;;
66946;SDS011;53853;51.982;5.928;2023-04-30T06:21:29;9.70;;;7.10;;
66946;SDS011;53853;51.982;5.928;2023-04-30T06:23:59;10.75;;;6.78;;
66946;SDS011;53853;51.982;5.928;2023-04-30T06:26:29;8.88;;;6.60;;
66946;SDS011;53853;51.982;5.928;2023-04-30T06:28:59;6.72;;;5.82;;
66946;SDS011;53853;51.982;5.928;2023-04-30T06:31:32;8.35;;;6.38;;
66946;SDS011;53853;51.982;5.928;2023-04-30T06:34:02;8.63;;;6.72;;
66946;SDS011;53853;51.982;5.928;2023-04-30T06:36:32;11.50;;;6.63;;
66946;SDS011;53853;51.982;5.928;2023-04-30T06:39:01;8.13;;;5.72;;
66946;SDS011;53853;51.982;5.928;2023-04-30T06:41:31;7.95;;;5.53;;
66946;SDS011;53853;51.982;5.928;2023-04-30T06:44:08;9.05;;;6.22;;
66946;SDS011;53853;51.982;5.928;2023-04-30T06:46:41;12.38;;;7.93;;
66946;SDS011;53853;51.982;5.928;2023-04-30T06:49:14;11.15;;;5.55;;
66946;SDS011;53853;51.982;5.928;2023-04-30T06:51:43;8.05;;;6.00;;
66946;SDS011;53853;51.982;5.928;2023-04-30T06:54:13;10.05;;;6.15;;
66946;SDS011;53853;51.982;5.928;2023-04-30T06:56:43;8.07;;;6.03;;
66946;SDS011;53853;51.982;5.928;2023-04-30T06:59:13;8.60;;;6.90;;
66946;SDS011;53853;51.982;5.928;2023-04-30T07:01:46;7.13;;;6.28;;
66946;SDS011;53853;51.982;5.928;2023-04-30T07:04:15;8.35;;;6.22;;
66946;SDS011;53853;51.982;5.928;2023-04-30T07:06:45;9.30;;;6.43;;
66946;SDS011;53853;51.982;5.928;2023-04-30T07:09:15;14.45;;;8.38;;
66946;SDS011;53853;51.982;5.928;2023-04-30T07:11:45;6.75;;;5.35;;
66946;SDS011;53853;51.982;5.928;2023-04-30T07:14:16;8.35;;;5.18;;
66946;SDS011;53853;51.982;5.928;2023-04-30T07:16:48;8.35;;;5.82;;
66946;SDS011;53853;51.982;5.928;2023-04-30T07:19:18;10.45;;;5.88;;
66946;SDS011;53853;51.982;5.928;2023-04-30T07:21:50;11.73;;;6.35;;
66946;SDS011;53853;51.982;5.928;2023-04-30T07:24:19;9.15;;;5.40;;
66946;SDS011;53853;51.982;5.928;2023-04-30T07:26:49;11.38;;;5.57;;
66946;SDS011;53853;51.982;5.928;2023-04-30T07:29:19;7.03;;;5.00;;
66946;SDS011;53853;51.982;5.928;2023-04-30T07:31:52;7.95;;;5.15;;
66946;SDS011;53853;51.982;5.928;2023-04-30T07:34:22;7.70;;;5.57;;
66946;SDS011;53853;51.982;5.928;2023-04-30T07:36:52;6.68;;;5.60;;
66946;SDS011;53853;51.982;5.928;2023-04-30T07:39:22;7.05;;;5.68;;
66946;SDS011;53853;51.982;5.928;2023-04-30T07:41:52;5.93;;;4.57;;
66946;SDS011;53853;51.982;5.928;2023-04-30T07:44:22;8.48;;;5.30;;
66946;SDS011;53853;51.982;5.928;2023-04-30T07:46:54;6.85;;;5.63;;
66946;SDS011;53853;51.982;5.928;2023-04-30T07:49:24;7.95;;;5.78;;
66946;SDS011;53853;51.982;5.928;2023-04-30T07:51:54;6.47;;;5.57;;
66946;SDS011;53853;51.982;5.928;2023-04-30T07:54:26;8.38;;;5.45;;
66946;SDS011;53853;51.982;5.928;2023-04-30T07:56:56;6.85;;;4.85;;
66946;SDS011;53853;51.982;5.928;2023-04-30T07:59:25;11.77;;;6.68;;
66946;SDS011;53853;51.982;5.928;2023-04-30T08:01:58;8.65;;;6.90;;
66946;SDS011;53853;51.982;5.928;2023-04-30T08:04:28;9.57;;;6.60;;
66946;SDS011;53853;51.982;5.928;2023-04-30T08:06:58;7.35;;;5.10;;
66946;SDS011;53853;51.982;5.928;2023-04-30T08:09:29;7.20;;;5.35;;
66946;SDS011;53853;51.982;5.928;2023-04-30T08:11:59;6.43;;;5.15;;
66946;SDS011;53853;51.982;5.928;2023-04-30T08:14:30;6.07;;;5.20;;
66946;SDS011;53853;51.982;5.928;2023-04-30T08:17:03;7.53;;;5.18;;
66946;SDS011;53853;51.982;5.928;2023-04-30T08:19:33;7.70;;;5.10;;
66946;SDS011;53853;51.982;5.928;2023-04-30T08:22:02;10.45;;;5.15;;
66946;SDS011;53853;51.982;5.928;2023-04-30T08:24:32;8.80;;;5.95;;
66946;SDS011;53853;51.982;5.928;2023-04-30T08:27:02;5.50;;;4.65;;
66946;SDS011;53853;51.982;5.928;2023-04-30T08:29:32;8.15;;;6.03;;
66946;SDS011;53853;51.982;5.928;2023-04-30T08:32:05;10.75;;;5.60;;
66946;SDS011;53853;51.982;5.928;2023-04-30T08:34:34;7.95;;;4.88;;
66946;SDS011;53853;51.982;5.928;2023-04-30T08:37:05;8.50;;;5.50;;
66946;SDS011;53853;51.982;5.928;2023-04-30T08:39:35;6.43;;;5.57;;
66946;SDS011;53853;51.982;5.928;2023-04-30T08:42:07;6.15;;;4.68;;
66946;SDS011;53853;51.982;5.928;2023-04-30T08:44:40;7.28;;;5.75;;
66946;SDS011;53853;51.982;5.928;2023-04-30T08:47:14;8.50;;;6.15;;
66946;SDS011;53853;51.982;5.928;2023-04-30T08:49:45;11.07;;;6.88;;
66946;SDS011;53853;51.982;5.928;2023-04-30T08:52:17;9.38;;;6.05;;
66946;SDS011;53853;51.982;5.928;2023-04-30T08:54:47;6.05;;;4.88;;
66946;SDS011;53853;51.982;5.928;2023-04-30T08:57:19;10.25;;;6.47;;
66946;SDS011;53853;51.982;5.928;2023-04-30T08:59:50;5.47;;;4.47;;
66946;SDS011;53853;51.982;5.928;2023-04-30T09:02:22;9.43;;;5.80;;
66946;SDS011;53853;51.982;5.928;2023-04-30T09:04:52;8.10;;;5.45;;
66946;SDS011;53853;51.982;5.928;2023-04-30T09:07:22;9.10;;;4.95;;
66946;SDS011;53853;51.982;5.928;2023-04-30T09:09:54;9.48;;;5.88;;
66946;SDS011;53853;51.982;5.928;2023-04-30T09:12:25;9.80;;;6.22;;
66946;SDS011;53853;51.982;5.928;2023-04-30T09:14:59;6.22;;;5.22;;
66946;SDS011;53853;51.982;5.928;2023-04-30T09:17:33;8.20;;;5.47;;
66946;SDS011;53853;51.982;5.928;2023-04-30T09:20:07;6.78;;;5.18;;
66946;SDS011;53853;51.982;5.928;2023-04-30T09:22:39;8.23;;;5.03;;
66946;SDS011;53853;51.982;5.928;2023-04-30T09:25:09;8.32;;;5.13;;
66946;SDS011;53853;51.982;5.928;2023-04-30T09:27:39;9.60;;;5.47;;
66946;SDS011;53853;51.982;5.928;2023-04-30T09:30:09;8.45;;;5.20;;
66946;SDS011;53853;51.982;5.928;2023-04-30T09:33:02;5.05;;;3.80;;
66946;SDS011;53853;51.982;5.928;2023-04-30T09:35:33;8.85;;;6.43;;
66946;SDS011;53853;51.982;5.928;2023-04-30T09:38:04;6.70;;;5.65;;
66946;SDS011;53853;51.982;5.928;2023-04-30T09:40:34;7.30;;;5.80;;
66946;SDS011;53853;51.982;5.928;2023-04-30T09:43:05;9.02;;;6.10;;
66946;SDS011;53853;51.982;5.928;2023-04-30T09:45:39;6.70;;;4.68;;
66946;SDS011;53853;51.982;5.928;2023-04-30T09:48:17;7.22;;;4.93;;
66946;SDS011;53853;51.982;5.928;2023-04-30T09:50:49;7.32;;;6.05;;
66946;SDS011;53853;51.982;5.928;2023-04-30T09:53:19;6.18;;;4.80;;
66946;SDS011;53853;51.982;5.928;2023-04-30T09:55:49;6.18;;;4.57;;
66946;SDS011;53853;51.982;5.928;2023-04-30T09:58:19;5.88;;;4.55;;
66946;SDS011;53853;51.982;5.928;2023-04-30T10:00:50;6.43;;;5.18;;
66946;SDS011;53853;51.982;5.928;2023-04-30T10:03:25;7.03;;;5.00;;
66946;SDS011;53853;51.982;5.928;2023-04-30T10:05:55;7.45;;;5.13;;
66946;SDS011;53853;51.982;5.928;2023-04-30T10:08:26;8.23;;;5.32;;
66946;SDS011;53853;51.982;5.928;2023-04-30T10:11:00;7.13;;;3.88;;
66946;SDS011;53853;51.982;5.928;2023-04-30T10:13:34;5.13;;;3.08;;
66946;SDS011;53853;51.982;5.928;2023-04-30T10:16:11;6.45;;;4.03;;
66946;SDS011;53853;51.982;5.928;2023-04-30T10:18:50;5.68;;;5.03;;
66946;SDS011;53853;51.982;5.928;2023-04-30T10:21:22;5.70;;;4.38;;
66946;SDS011;53853;51.982;5.928;2023-04-30T10:23:54;7.10;;;4.88;;
66946;SDS011;53853;51.982;5.928;2023-04-30T10:26:25;6.72;;;4.88;;
66946;SDS011;53853;51.982;5.928;2023-04-30T10:28:57;6.25;;;4.28;;
66946;SDS011;53853;51.982;5.928;2023-04-30T10:31:30;7.03;;;4.85;;
66946;SDS011;53853;51.982;5.928;2023-04-30T10:34:05;5.40;;;3.95;;
66946;SDS011;53853;51.982;5.928;2023-04-30T10:36:44;6.55;;;4.63;;
66946;SDS011;53853;51.982;5.928;2023-04-30T10:39:16;5.25;;;3.78;;
66946;SDS011;53853;51.982;5.928;2023-04-30T10:41:48;5.50;;;4.35;;
66946;SDS011;53853;51.982;5.928;2023-04-30T10:44:20;7.70;;;4.75;;
66946;SDS011;53853;51.982;5.928;2023-04-30T10:46:57;6.13;;;4.22;;
66946;SDS011;53853;51.982;5.928;2023-04-30T10:49:30;5.55;;;3.97;;
66946;SDS011;53853;51.982;5.928;2023-04-30T10:52:01;6.68;;;4.97;;
66946;SDS011;53853;51.982;5.928;2023-04-30T10:54:32;7.78;;;4.78;;
66946;SDS011;53853;51.982;5.928;2023-04-30T10:57:10;5.88;;;4.90;;
66946;SDS011;53853;51.982;5.928;2023-04-30T10:59:42;8.02;;;4.97;;
66946;SDS011;53853;51.982;5.928;2023-04-30T11:02:19;6.13;;;4.68;;
66946;SDS011;53853;51.982;5.928;2023-04-30T11:07:46;4.53;;;3.22;;
66946;SDS011;53853;51.982;5.928;2023-04-30T11:12:49;6.78;;;4.60;;
66946;SDS011;53853;51.982;5.928;2023-04-30T11:15:23;7.10;;;5.20;;
66946;SDS011;53853;51.982;5.928;2023-04-30T11:17:55;6.32;;;3.22;;
66946;SDS011;53853;51.982;5.928;2023-04-30T11:20:28;5.90;;;4.07;;
66946;SDS011;53853;51.982;5.928;2023-04-30T11:23:08;7.35;;;4.50;;
66946;SDS011;53853;51.982;5.928;2023-04-30T11:25:39;9.60;;;4.72;;
66946;SDS011;53853;51.982;5.928;2023-04-30T11:28:12;5.45;;;4.30;;
66946;SDS011;53853;51.982;5.928;2023-04-30T11:30:50;8.07;;;5.28;;
66946;SDS011;53853;51.982;5.928;2023-04-30T11:33:21;4.82;;;3.25;;
66946;SDS011;53853;51.982;5.928;2023-04-30T11:35:55;4.47;;;3.75;;
66946;SDS011;53853;51.982;5.928;2023-04-30T11:40:57;6.70;;;3.78;;
66946;SDS011;53853;51.982;5.928;2023-04-30T11:43:27;5.93;;;3.38;;
66946;SDS011;53853;51.982;5.928;2023-04-30T11:46:05;5.18;;;3.90;;
66946;SDS011;53853;51.982;5.928;2023-04-30T11:48:38;5.57;;;3.90;;
66946;SDS011;53853;51.982;5.928;2023-04-30T11:51:16;5.22;;;3.83;;
66946;SDS011;53853;51.982;5.928;2023-04-30T11:53:47;5.38;;;3.65;;
66946;SDS011;53853;51.982;5.928;2023-04-30T11:56:18;7.22;;;4.18;;
66946;SDS011;53853;51.982;5.928;2023-04-30T11:58:49;5.72;;;3.97;;
66946;SDS011;53853;51.982;5.928;2023-04-30T12:01:20;6.18;;;3.63;;
66946;SDS011;53853;51.982;5.928;2023-04-30T12:03:55;6.15;;;3.28;;
66946;SDS011;53853;51.982;5.928;2023-04-30T12:06:27;4.60;;;3.17;;
66946;SDS011;53853;51.982;5.928;2023-04-30T12:08:58;5.50;;;3.83;;
66946;SDS011;53853;51.982;5.928;2023-04-30T12:11:32;5.05;;;4.00;;
66946;SDS011;53853;51.982;5.928;2023-04-30T12:14:04;6.10;;;3.17;;
66946;SDS011;53853;51.982;5.928;2023-04-30T12:16:39;7.20;;;4.13;;
66946;SDS011;53853;51.982;5.928;2023-04-30T12:19:10;6.30;;;3.40;;
66946;SDS011;53853;51.982;5.928;2023-04-30T12:21:44;7.70;;;4.60;;
66946;SDS011;53853;51.982;5.928;2023-04-30T12:24:15;4.93;;;3.15;;
66946;SDS011;53853;51.982;5.928;2023-04-30T12:26:48;4.93;;;2.80;;
66946;SDS011;53853;51.982;5.928;2023-04-30T12:29:22;4.50;;;2.85;;
66946;SDS011;53853;51.982;5.928;2023-04-30T12:31:52;3.15;;;2.33;;
66946;SDS011;53853;51.982;5.928;2023-04-30T12:34:25;4.93;;;3.25;;
66946;SDS011;53853;51.982;5.928;2023-04-30T12:37:00;3.10;;;2.40;;
66946;SDS011;53853;51.982;5.928;2023-04-30T12:39:32;3.33;;;2.13;;
66946;SDS011;53853;51.982;5.928;2023-04-30T12:42:03;5.50;;;2.15;;
66946;SDS011;53853;51.982;5.928;2023-04-30T12:44:40;4.38;;;2.15;;
66946;SDS011;53853;51.982;5.928;2023-04-30T12:47:11;4.38;;;1.83;;
66946;SDS011;53853;51.982;5.928;2023-04-30T12:49:43;2.90;;;1.90;;
66946;SDS011;53853;51.982;5.928;2023-04-30T12:52:16;2.92;;;1.75;;
66946;SDS011;53853;51.982;5.928;2023-04-30T12:54:51;4.78;;;2.40;;
66946;SDS011;53853;51.982;5.928;2023-04-30T12:57:21;3.15;;;1.80;;
66946;SDS011;53853;51.982;5.928;2023-04-30T12:59:58;3.67;;;2.35;;
66946;SDS011;53853;51.982;5.928;2023-04-30T13:02:30;2.88;;;2.00;;
66946;SDS011;53853;51.982;5.928;2023-04-30T13:05:00;4.10;;;2.10;;
66946;SDS011;53853;51.982;5.928;2023-04-30T13:07:37;3.97;;;2.45;;
66946;SDS011;53853;51.982;5.928;2023-04-30T13:10:08;2.97;;;1.90;;
66946;SDS011;53853;51.982;5.928;2023-04-30T13:12:38;2.10;;;1.27;;
66946;SDS011;53853;51.982;5.928;2023-04-30T13:15:08;3.45;;;2.13;;
66946;SDS011;53853;51.982;5.928;2023-04-30T13:17:38;3.22;;;1.67;;
66946;SDS011;53853;51.982;5.928;2023-04-30T13:20:09;5.20;;;2.72;;
66946;SDS011;53853;51.982;5.928;2023-04-30T13:22:41;3.30;;;2.10;;
66946;SDS011;53853;51.982;5.928;2023-04-30T13:25:12;4.78;;;2.50;;
66946;SDS011;53853;51.982;5.928;2023-04-30T13:27:41;3.53;;;1.80;;
66946;SDS011;53853;51.982;5.928;2023-04-30T13:30:11;3.38;;;1.90;;
66946;SDS011;53853;51.982;5.928;2023-04-30T13:32:41;5.25;;;2.50;;
66946;SDS011;53853;51.982;5.928;2023-04-30T13:35:11;5.43;;;3.60;;
66946;SDS011;53853;51.982;5.928;2023-04-30T13:37:44;4.65;;;2.53;;
66946;SDS011;53853;51.982;5.928;2023-04-30T13:40:17;4.75;;;3.00;;
66946;SDS011;53853;51.982;5.928;2023-04-30T13:42:47;5.20;;;2.95;;
66946;SDS011;53853;51.982;5.928;2023-04-30T13:45:17;3.47;;;2.20;;
66946;SDS011;53853;51.982;5.928;2023-04-30T13:47:47;3.95;;;2.35;;
66946;SDS011;53853;51.982;5.928;2023-04-30T13:50:17;3.40;;;1.50;;
66946;SDS011;53853;51.982;5.928;2023-04-30T13:52:50;3.50;;;1.90;;
66946;SDS011;53853;51.982;5.928;2023-04-30T13:55:20;3.33;;;1.60;;
66946;SDS011;53853;51.982;5.928;2023-04-30T13:57:49;4.82;;;2.10;;
66946;SDS011;53853;51.982;5.928;2023-04-30T14:00:20;4.45;;;2.33;;
66946;SDS011;53853;51.982;5.928;2023-04-30T14:02:51;5.53;;;2.13;;
66946;SDS011;53853;51.982;5.928;2023-04-30T14:05:21;6.22;;;2.75;;
66946;SDS011;53853;51.982;5.928;2023-04-30T14:07:53;4.10;;;2.40;;
66946;SDS011;53853;51.982;5.928;2023-04-30T14:10:23;3.30;;;1.88;;
66946;SDS011;53853;51.982;5.928;2023-04-30T14:12:53;4.30;;;2.28;;
66946;SDS011;53853;51.982;5.928;2023-04-30T14:15:23;2.63;;;1.85;;
66946;SDS011;53853;51.982;5.928;2023-04-30T14:17:55;3.92;;;1.85;;
66946;SDS011;53853;51.982;5.928;2023-04-30T14:20:26;4.72;;;2.33;;
66946;SDS011;53853;51.982;5.928;2023-04-30T14:22:58;2.83;;;1.42;;
66946;SDS011;53853;51.982;5.928;2023-04-30T14:25:28;3.13;;;1.85;;
66946;SDS011;53853;51.982;5.928;2023-04-30T14:27:58;3.90;;;1.88;;
66946;SDS011;53853;51.982;5.928;2023-04-30T14:30:28;3.78;;;1.45;;
66946;SDS011;53853;51.982;5.928;2023-04-30T14:32:58;4.78;;;2.20;;
66946;SDS011;53853;51.982;5.928;2023-04-30T14:35:28;3.00;;;1.60;;
66946;SDS011;53853;51.982;5.928;2023-04-30T14:38:00;3.17;;;1.85;;
66946;SDS011;53853;51.982;5.928;2023-04-30T14:40:30;3.42;;;1.90;;
66946;SDS011;53853;51.982;5.928;2023-04-30T14:43:00;4.68;;;2.00;;
66946;SDS011;53853;51.982;5.928;2023-04-30T14:45:31;3.08;;;1.73;;
66946;SDS011;53853;51.982;5.928;2023-04-30T14:48:01;2.95;;;1.60;;
66946;SDS011;53853;51.982;5.928;2023-04-30T14:50:31;2.80;;;1.42;;
66946;SDS011;53853;51.982;5.928;2023-04-30T14:53:04;3.17;;;1.95;;
66946;SDS011;53853;51.982;5.928;2023-04-30T14:55:36;3.47;;;1.75;;
66946;SDS011;53853;51.982;5.928;2023-04-30T14:58:06;3.05;;;1.40;;
66946;SDS011;53853;51.982;5.928;2023-04-30T15:00:37;3.35;;;1.40;;
66946;SDS011;53853;51.982;5.928;2023-04-30T15:03:06;2.72;;;1.42;;
66946;SDS011;53853;51.982;5.928;2023-04-30T15:05:36;4.50;;;1.58;;
66946;SDS011;53853;51.982;5.928;2023-04-30T15:08:10;1.75;;;1.27;;
66946;SDS011;53853;51.982;5.928;2023-04-30T15:10:41;3.17;;;1.52;;
66946;SDS011;53853;51.982;5.928;2023-04-30T15:13:10;2.88;;;1.50;;
66946;SDS011;53853;51.982;5.928;2023-04-30T15:15:40;2.90;;;1.80;;
66946;SDS011;53853;51.982;5.928;2023-04-30T15:18:11;3.17;;;1.40;;
66946;SDS011;53853;51.982;5.928;2023-04-30T15:20:42;2.13;;;1.17;;
66946;SDS011;53853;51.982;5.928;2023-04-30T15:23:14;2.50;;;1.10;;